Back to Top

Language: 

My Weather Underground Personal Weather Station Historical Data with Graphs...

Delerius Weather Station Historical Data
Daily Summary for March 31, 2017 Units:  Both    English   Metric
« Previous Day
Next Day »
Daily Weekly Monthly Yearly Custom
  High: Low: Average:
Temperature: 63.9 °F /  17.7 °C 52.3 °F /  11.3 °C 57.9 °F /  14.4 °C
Dew Point: 50.2 °F /  10.1 °C 42.3 °F /  5.7 °C 47.6 °F /  8.7 °C
Humidity: 82 % 48 % 70 %
Wind Speed: 17.0 mph /  27.4 km/h - 8.7 mph /  14 km/h
Wind Gust: 32.0 mph /  51.5 km/h - -
Wind:- - SSW
Pressure: 29.83 in /  1010 hPa 29.66 in /  1004.3 hPa -
Precipitation: 0.00 in /  0 mm    
Historical Graphs
 
 
Tabular Data for March 31, 2017
Time Temperature Dew Point Pressure Wind Wind Speed Wind Gust Humidity Rainfall Rate (Hourly) solar Conditions
00:04 59.2 °F /  15.1 °C 49.8 °F /  9.9 °C 29.83 in /  1010 hPa SSE 5.0 mph /  8 km/h 11.0 mph /  17.7 km/h 71 % 0.00 in /  0 mm 0 W/m2
00:09 59.0 °F /  15 °C 49.6 °F /  9.8 °C 29.83 in /  1010 hPa SSE 5.0 mph /  8 km/h 9.0 mph /  14.5 km/h 71 % 0.00 in /  0 mm 0 W/m2
00:14 58.8 °F /  14.9 °C 49.4 °F /  9.7 °C 29.83 in /  1010 hPa SSE 5.0 mph /  8 km/h 9.0 mph /  14.5 km/h 71 % 0.00 in /  0 mm 0 W/m2
00:19 58.8 °F /  14.9 °C 49.8 °F /  9.9 °C 29.83 in /  1010 hPa SSE 5.0 mph /  8 km/h 9.0 mph /  14.5 km/h 72 % 0.00 in /  0 mm 0 W/m2
00:24 58.6 °F /  14.8 °C 49.6 °F /  9.8 °C 29.83 in /  1010 hPa SSE 4.0 mph /  6.4 km/h 8.0 mph /  12.9 km/h 72 % 0.00 in /  0 mm 0 W/m2
00:29 58.6 °F /  14.8 °C 49.6 °F /  9.8 °C 29.83 in /  1010 hPa SSE 4.0 mph /  6.4 km/h 8.0 mph /  12.9 km/h 72 % 0.00 in /  0 mm 0 W/m2
00:34 58.5 °F /  14.7 °C 49.5 °F /  9.7 °C 29.82 in /  1009.7 hPa SSE 4.0 mph /  6.4 km/h 8.0 mph /  12.9 km/h 72 % 0.00 in /  0 mm 0 W/m2
00:39 58.5 °F /  14.7 °C 49.8 °F /  9.9 °C 29.82 in /  1009.7 hPa SSE 4.0 mph /  6.4 km/h 8.0 mph /  12.9 km/h 73 % 0.00 in /  0 mm 0 W/m2
00:44 58.3 °F /  14.6 °C 49.7 °F /  9.8 °C 29.82 in /  1009.7 hPa SSE 4.0 mph /  6.4 km/h 8.0 mph /  12.9 km/h 73 % 0.00 in /  0 mm 0 W/m2
00:49 58.3 °F /  14.6 °C 49.7 °F /  9.8 °C 29.81 in /  1009.4 hPa SSE 4.0 mph /  6.4 km/h 8.0 mph /  12.9 km/h 73 % 0.00 in /  0 mm 0 W/m2
00:54 58.3 °F /  14.6 °C 49.7 °F /  9.8 °C 29.81 in /  1009.4 hPa SSE 4.0 mph /  6.4 km/h 8.0 mph /  12.9 km/h 73 % 0.00 in /  0 mm 0 W/m2
00:59 58.3 °F /  14.6 °C 50.0 °F /  10 °C 29.81 in /  1009.4 hPa SSE 4.0 mph /  6.4 km/h 8.0 mph /  12.9 km/h 74 % 0.00 in /  0 mm 0 W/m2
01:04 58.1 °F /  14.5 °C 49.9 °F /  9.9 °C 29.80 in /  1009 hPa SE 5.0 mph /  8 km/h 9.0 mph /  14.5 km/h 74 % 0.00 in /  0 mm 0 W/m2
01:09 57.9 °F /  14.4 °C 49.7 °F /  9.8 °C 29.80 in /  1009 hPa SE 4.0 mph /  6.4 km/h 9.0 mph /  14.5 km/h 74 % 0.00 in /  0 mm 0 W/m2
01:14 57.7 °F /  14.3 °C 49.5 °F /  9.7 °C 29.80 in /  1009 hPa SE 4.0 mph /  6.4 km/h 8.0 mph /  12.9 km/h 74 % 0.00 in /  0 mm 0 W/m2
01:19 57.7 °F /  14.3 °C 49.9 °F /  9.9 °C 29.80 in /  1009 hPa SE 4.0 mph /  6.4 km/h 8.0 mph /  12.9 km/h 75 % 0.00 in /  0 mm 0 W/m2
01:24 57.6 °F /  14.2 °C 49.7 °F /  9.8 °C 29.80 in /  1009 hPa SE 5.0 mph /  8 km/h 10.0 mph /  16.1 km/h 75 % 0.00 in /  0 mm 0 W/m2
01:29 57.6 °F /  14.2 °C 49.7 °F /  9.8 °C 29.79 in /  1008.7 hPa SE 6.0 mph /  9.7 km/h 10.0 mph /  16.1 km/h 75 % 0.00 in /  0 mm 0 W/m2
01:34 57.4 °F /  14.1 °C 49.9 °F /  9.9 °C 29.79 in /  1008.7 hPa SE 6.0 mph /  9.7 km/h 9.0 mph /  14.5 km/h 76 % 0.00 in /  0 mm 0 W/m2
01:39 57.4 °F /  14.1 °C 49.9 °F /  9.9 °C 29.79 in /  1008.7 hPa SE 5.0 mph /  8 km/h 8.0 mph /  12.9 km/h 76 % 0.00 in /  0 mm 0 W/m2
01:44 57.4 °F /  14.1 °C 49.9 °F /  9.9 °C 29.78 in /  1008.4 hPa SE 5.0 mph /  8 km/h 8.0 mph /  12.9 km/h 76 % 0.00 in /  0 mm 0 W/m2
01:49 57.4 °F /  14.1 °C 49.9 °F /  9.9 °C 29.78 in /  1008.4 hPa SSE 5.0 mph /  8 km/h 9.0 mph /  14.5 km/h 76 % 0.00 in /  0 mm 0 W/m2
01:54 57.2 °F /  14 °C 49.7 °F /  9.8 °C 29.78 in /  1008.4 hPa SSE 5.0 mph /  8 km/h 9.0 mph /  14.5 km/h 76 % 0.00 in /  0 mm 0 W/m2
01:59 57.2 °F /  14 °C 50.1 °F /  10.1 °C 29.78 in /  1008.4 hPa SSE 5.0 mph /  8 km/h 9.0 mph /  14.5 km/h 77 % 0.00 in /  0 mm 0 W/m2
02:04 57.0 °F /  13.9 °C 49.5 °F /  9.7 °C 29.78 in /  1008.4 hPa SE 4.0 mph /  6.4 km/h 9.0 mph /  14.5 km/h 76 % 0.00 in /  0 mm 0 W/m2
02:09 57.0 °F /  13.9 °C 49.9 °F /  9.9 °C 29.78 in /  1008.4 hPa SSE 3.0 mph /  4.8 km/h 7.0 mph /  11.3 km/h 77 % 0.00 in /  0 mm 0 W/m2
02:14 57.0 °F /  13.9 °C 49.9 °F /  9.9 °C 29.78 in /  1008.4 hPa SSE 3.0 mph /  4.8 km/h 7.0 mph /  11.3 km/h 77 % 0.00 in /  0 mm 0 W/m2
02:19 57.0 °F /  13.9 °C 49.9 °F /  9.9 °C 29.78 in /  1008.4 hPa South 2.0 mph /  3.2 km/h 7.0 mph /  11.3 km/h 77 % 0.00 in /  0 mm 0 W/m2
02:24 57.0 °F /  13.9 °C 49.9 °F /  9.9 °C 29.77 in /  1008 hPa SSE 1.0 mph /  1.6 km/h 4.0 mph /  6.4 km/h 77 % 0.00 in /  0 mm 0 W/m2
02:29 56.8 °F /  13.8 °C 49.7 °F /  9.8 °C 29.77 in /  1008 hPa Calm   2.0 mph /  3.2 km/h 77 % 0.00 in /  0 mm 0 W/m2
02:34 56.8 °F /  13.8 °C 49.7 °F /  9.8 °C 29.76 in /  1007.7 hPa Calm   2.0 mph /  3.2 km/h 77 % 0.00 in /  0 mm 0 W/m2
02:39 56.7 °F /  13.7 °C 49.9 °F /  9.9 °C 29.76 in /  1007.7 hPa Calm   2.0 mph /  3.2 km/h 78 % 0.00 in /  0 mm 0 W/m2
02:44 56.5 °F /  13.6 °C 49.7 °F /  9.8 °C 29.76 in /  1007.7 hPa Calm   2.0 mph /  3.2 km/h 78 % 0.00 in /  0 mm 0 W/m2
02:49 56.5 °F /  13.6 °C 49.7 °F /  9.8 °C 29.76 in /  1007.7 hPa Calm   2.0 mph /  3.2 km/h 78 % 0.00 in /  0 mm 0 W/m2
02:54 56.5 °F /  13.6 °C 49.7 °F /  9.8 °C 29.76 in /  1007.7 hPa SSE 1.0 mph /  1.6 km/h 5.0 mph /  8 km/h 78 % 0.00 in /  0 mm 0 W/m2
03:00 56.5 °F /  13.6 °C 49.7 °F /  9.8 °C 29.75 in /  1007.3 hPa SSE 1.0 mph /  1.6 km/h 5.0 mph /  8 km/h 78 % 0.00 in /  0 mm 0 W/m2
03:04 56.5 °F /  13.6 °C 49.7 °F /  9.8 °C 29.75 in /  1007.3 hPa SSE 2.0 mph /  3.2 km/h 6.0 mph /  9.7 km/h 78 % 0.00 in /  0 mm 0 W/m2
03:09 56.5 °F /  13.6 °C 49.7 °F /  9.8 °C 29.75 in /  1007.3 hPa SSE 2.0 mph /  3.2 km/h 8.0 mph /  12.9 km/h 78 % 0.00 in /  0 mm 0 W/m2
03:14 56.5 °F /  13.6 °C 49.7 °F /  9.8 °C 29.75 in /  1007.3 hPa South 3.0 mph /  4.8 km/h 8.0 mph /  12.9 km/h 78 % 0.00 in /  0 mm 0 W/m2
03:19 56.5 °F /  13.6 °C 49.7 °F /  9.8 °C 29.75 in /  1007.3 hPa South 4.0 mph /  6.4 km/h 10.0 mph /  16.1 km/h 78 % 0.00 in /  0 mm 0 W/m2
03:24 56.5 °F /  13.6 °C 49.7 °F /  9.8 °C 29.75 in /  1007.3 hPa South 4.0 mph /  6.4 km/h 10.0 mph /  16.1 km/h 78 % 0.00 in /  0 mm 0 W/m2
03:29 56.5 °F /  13.6 °C 49.7 °F /  9.8 °C 29.74 in /  1007 hPa South 5.0 mph /  8 km/h 10.0 mph /  16.1 km/h 78 % 0.00 in /  0 mm 0 W/m2
03:34 56.5 °F /  13.6 °C 49.7 °F /  9.8 °C 29.75 in /  1007.3 hPa South 5.0 mph /  8 km/h 10.0 mph /  16.1 km/h 78 % 0.00 in /  0 mm 0 W/m2
03:39 56.5 °F /  13.6 °C 49.7 °F /  9.8 °C 29.74 in /  1007 hPa South 5.0 mph /  8 km/h 8.0 mph /  12.9 km/h 78 % 0.00 in /  0 mm 0 W/m2
03:44 56.5 °F /  13.6 °C 49.7 °F /  9.8 °C 29.74 in /  1007 hPa SSW 6.0 mph /  9.7 km/h 11.0 mph /  17.7 km/h 78 % 0.00 in /  0 mm 0 W/m2
03:49 56.5 °F /  13.6 °C 49.7 °F /  9.8 °C 29.74 in /  1007 hPa SSW 5.0 mph /  8 km/h 11.0 mph /  17.7 km/h 78 % 0.00 in /  0 mm 0 W/m2
03:54 56.1 °F /  13.4 °C 49.4 °F /  9.7 °C 29.74 in /  1007 hPa SW 4.0 mph /  6.4 km/h 7.0 mph /  11.3 km/h 78 % 0.00 in /  0 mm 0 W/m2
03:59 56.1 °F /  13.4 °C 49.4 °F /  9.7 °C 29.74 in /  1007 hPa SW 4.0 mph /  6.4 km/h 7.0 mph /  11.3 km/h 78 % 0.00 in /  0 mm 0 W/m2
04:04 55.9 °F /  13.3 °C 49.2 °F /  9.6 °C 29.74 in /  1007 hPa SSW 3.0 mph /  4.8 km/h 7.0 mph /  11.3 km/h 78 % 0.00 in /  0 mm 0 W/m2
04:09 55.9 °F /  13.3 °C 49.5 °F /  9.7 °C 29.73 in /  1006.7 hPa South 2.0 mph /  3.2 km/h 7.0 mph /  11.3 km/h 79 % 0.00 in /  0 mm 0 W/m2
04:14 55.9 °F /  13.3 °C 49.5 °F /  9.7 °C 29.73 in /  1006.7 hPa SSE 4.0 mph /  6.4 km/h 8.0 mph /  12.9 km/h 79 % 0.00 in /  0 mm 0 W/m2
04:19 55.8 °F /  13.2 °C 49.3 °F /  9.6 °C 29.73 in /  1006.7 hPa SSE 5.0 mph /  8 km/h 9.0 mph /  14.5 km/h 79 % 0.00 in /  0 mm 0 W/m2
04:24 55.8 °F /  13.2 °C 49.3 °F /  9.6 °C 29.72 in /  1006.3 hPa SSE 5.0 mph /  8 km/h 9.0 mph /  14.5 km/h 79 % 0.00 in /  0 mm 0 W/m2
04:27 55.8 °F /  13.2 °C 49.3 °F /  9.6 °C 29.72 in /  1006.3 hPa SSE 5.0 mph /  8 km/h 9.0 mph /  14.5 km/h 79 % 0.00 in /  0 mm 0 W/m2
04:32 55.8 °F /  13.2 °C 49.3 °F /  9.6 °C 29.72 in /  1006.3 hPa SSE 4.0 mph /  6.4 km/h 8.0 mph /  12.9 km/h 79 % 0.00 in /  0 mm 0 W/m2
04:37 55.8 °F /  13.2 °C 49.3 °F /  9.6 °C 29.71 in /  1006 hPa SE 4.0 mph /  6.4 km/h 8.0 mph /  12.9 km/h 79 % 0.00 in /  0 mm 0 W/m2
04:42 55.8 °F /  13.2 °C 49.3 °F /  9.6 °C 29.71 in /  1006 hPa SE 3.0 mph /  4.8 km/h 6.0 mph /  9.7 km/h 79 % 0.00 in /  0 mm 0 W/m2
04:47 55.8 °F /  13.2 °C 49.3 °F /  9.6 °C 29.71 in /  1006 hPa SSE 2.0 mph /  3.2 km/h 6.0 mph /  9.7 km/h 79 % 0.00 in /  0 mm 0 W/m2
04:52 55.8 °F /  13.2 °C 49.3 °F /  9.6 °C 29.71 in /  1006 hPa South 2.0 mph /  3.2 km/h 8.0 mph /  12.9 km/h 79 % 0.00 in /  0 mm 0 W/m2
04:57 55.6 °F /  13.1 °C 49.5 °F /  9.7 °C 29.71 in /  1006 hPa South 3.0 mph /  4.8 km/h 8.0 mph /  12.9 km/h 80 % 0.00 in /  0 mm 0 W/m2
05:02 55.6 °F /  13.1 °C 49.5 °F /  9.7 °C 29.71 in /  1006 hPa South 3.0 mph /  4.8 km/h 7.0 mph /  11.3 km/h 80 % 0.00 in /  0 mm 0 W/m2
05:07 55.6 °F /  13.1 °C 49.5 °F /  9.7 °C 29.71 in /  1006 hPa South 3.0 mph /  4.8 km/h 7.0 mph /  11.3 km/h 80 % 0.00 in /  0 mm 0 W/m2
05:12 55.4 °F /  13 °C 49.3 °F /  9.6 °C 29.71 in /  1006 hPa South 2.0 mph /  3.2 km/h 6.0 mph /  9.7 km/h 80 % 0.00 in /  0 mm 0 W/m2
05:17 55.4 °F /  13 °C 49.3 °F /  9.6 °C 29.71 in /  1006 hPa South 2.0 mph /  3.2 km/h 6.0 mph /  9.7 km/h 80 % 0.00 in /  0 mm 0 W/m2
05:22 55.2 °F /  12.9 °C 49.2 °F /  9.6 °C 29.71 in /  1006 hPa South 3.0 mph /  4.8 km/h 10.0 mph /  16.1 km/h 80 % 0.00 in /  0 mm 0 W/m2
05:27 55.2 °F /  12.9 °C 49.5 °F /  9.7 °C 29.71 in /  1006 hPa South 5.0 mph /  8 km/h 10.0 mph /  16.1 km/h 81 % 0.00 in /  0 mm 0 W/m2
05:32 55.4 °F /  13 °C 49.7 °F /  9.8 °C 29.70 in /  1005.6 hPa South 5.0 mph /  8 km/h 12.0 mph /  19.3 km/h 81 % 0.00 in /  0 mm 0 W/m2
05:37 55.4 °F /  13 °C 49.7 °F /  9.8 °C 29.70 in /  1005.6 hPa South 5.0 mph /  8 km/h 12.0 mph /  19.3 km/h 81 % 0.00 in /  0 mm 0 W/m2
05:42 55.4 °F /  13 °C 49.3 °F /  9.6 °C 29.70 in /  1005.6 hPa South 4.0 mph /  6.4 km/h 11.0 mph /  17.7 km/h 80 % 0.00 in /  0 mm 0 W/m2
05:47 55.4 °F /  13 °C 49.7 °F /  9.8 °C 29.70 in /  1005.6 hPa South 4.0 mph /  6.4 km/h 8.0 mph /  12.9 km/h 81 % 0.00 in /  0 mm 0 W/m2
05:52 55.4 °F /  13 °C 49.7 °F /  9.8 °C 29.70 in /  1005.6 hPa South 4.0 mph /  6.4 km/h 8.0 mph /  12.9 km/h 81 % 0.00 in /  0 mm 0 W/m2
05:57 55.2 °F /  12.9 °C 49.5 °F /  9.7 °C 29.70 in /  1005.6 hPa South 4.0 mph /  6.4 km/h 9.0 mph /  14.5 km/h 81 % 0.00 in /  0 mm 0 W/m2
06:02 55.2 °F /  12.9 °C 49.5 °F /  9.7 °C 29.69 in /  1005.3 hPa South 5.0 mph /  8 km/h 10.0 mph /  16.1 km/h 81 % 0.00 in /  0 mm 0 W/m2
06:07 55.2 °F /  12.9 °C 49.5 °F /  9.7 °C 29.69 in /  1005.3 hPa SSW 6.0 mph /  9.7 km/h 11.0 mph /  17.7 km/h 81 % 0.00 in /  0 mm 0 W/m2
06:12 55.2 °F /  12.9 °C 49.5 °F /  9.7 °C 29.69 in /  1005.3 hPa SSW 6.0 mph /  9.7 km/h 11.0 mph /  17.7 km/h 81 % 0.00 in /  0 mm 0 W/m2
06:17 55.2 °F /  12.9 °C 49.5 °F /  9.7 °C 29.69 in /  1005.3 hPa SSW 7.0 mph /  11.3 km/h 13.0 mph /  20.9 km/h 81 % 0.00 in /  0 mm 0 W/m2
06:22 55.2 °F /  12.9 °C 49.5 °F /  9.7 °C 29.68 in /  1005 hPa SSW 7.0 mph /  11.3 km/h 13.0 mph /  20.9 km/h 81 % 0.00 in /  0 mm 0 W/m2
06:27 55.2 °F /  12.9 °C 49.5 °F /  9.7 °C 29.68 in /  1005 hPa SSW 6.0 mph /  9.7 km/h 11.0 mph /  17.7 km/h 81 % 0.00 in /  0 mm 0 W/m2
06:32 55.0 °F /  12.8 °C 49.6 °F /  9.8 °C 29.68 in /  1005 hPa SSW 6.0 mph /  9.7 km/h 11.0 mph /  17.7 km/h 82 % 0.00 in /  0 mm 0 W/m2
06:37 55.0 °F /  12.8 °C 49.6 °F /  9.8 °C 29.68 in /  1005 hPa SSW 7.0 mph /  11.3 km/h 12.0 mph /  19.3 km/h 82 % 0.00 in /  0 mm 0 W/m2
06:42 55.0 °F /  12.8 °C 49.6 °F /  9.8 °C 29.68 in /  1005 hPa SSW 7.0 mph /  11.3 km/h 15.0 mph /  24.1 km/h 82 % 0.00 in /  0 mm 0 W/m2
06:47 55.0 °F /  12.8 °C 49.6 °F /  9.8 °C 29.68 in /  1005 hPa South 6.0 mph /  9.7 km/h 15.0 mph /  24.1 km/h 82 % 0.00 in /  0 mm 0 W/m2
06:52 55.0 °F /  12.8 °C 49.6 °F /  9.8 °C 29.68 in /  1005 hPa South 7.0 mph /  11.3 km/h 14.0 mph /  22.5 km/h 82 % 0.00 in /  0 mm 5 W/m2
06:57 55.0 °F /  12.8 °C 49.3 °F /  9.6 °C 29.67 in /  1004.6 hPa South 9.0 mph /  14.5 km/h 16.0 mph /  25.7 km/h 81 % 0.00 in /  0 mm 7 W/m2
07:02 55.0 °F /  12.8 °C 49.3 °F /  9.6 °C 29.67 in /  1004.6 hPa South 8.0 mph /  12.9 km/h 16.0 mph /  25.7 km/h 81 % 0.00 in /  0 mm 11 W/m2
07:07 55.0 °F /  12.8 °C 49.3 °F /  9.6 °C 29.67 in /  1004.6 hPa South 7.0 mph /  11.3 km/h 16.0 mph /  25.7 km/h 81 % 0.00 in /  0 mm 18 W/m2
07:12 55.0 °F /  12.8 °C 49.3 °F /  9.6 °C 29.67 in /  1004.6 hPa South 7.0 mph /  11.3 km/h 16.0 mph /  25.7 km/h 81 % 0.00 in /  0 mm 23 W/m2
07:17 55.0 °F /  12.8 °C 49.3 °F /  9.6 °C 29.67 in /  1004.6 hPa South 7.0 mph /  11.3 km/h 15.0 mph /  24.1 km/h 81 % 0.00 in /  0 mm 33 W/m2
07:22 55.2 °F /  12.9 °C 49.5 °F /  9.7 °C 29.67 in /  1004.6 hPa South 8.0 mph /  12.9 km/h 15.0 mph /  24.1 km/h 81 % 0.00 in /  0 mm 40 W/m2
07:27 55.2 °F /  12.9 °C 49.5 °F /  9.7 °C 29.67 in /  1004.6 hPa South 7.0 mph /  11.3 km/h 13.0 mph /  20.9 km/h 81 % 0.00 in /  0 mm 39 W/m2
07:32 55.2 °F /  12.9 °C 49.5 °F /  9.7 °C 29.67 in /  1004.6 hPa South 8.0 mph /  12.9 km/h 16.0 mph /  25.7 km/h 81 % 0.00 in /  0 mm 37 W/m2
07:37 55.4 °F /  13 °C 49.3 °F /  9.6 °C 29.67 in /  1004.6 hPa South 10.0 mph /  16.1 km/h 19.0 mph /  30.6 km/h 80 % 0.00 in /  0 mm 32 W/m2
07:42 55.6 °F /  13.1 °C 49.5 °F /  9.7 °C 29.67 in /  1004.6 hPa South 10.0 mph /  16.1 km/h 19.0 mph /  30.6 km/h 80 % 0.00 in /  0 mm 28 W/m2
07:47 55.6 °F /  13.1 °C 49.5 °F /  9.7 °C 29.66 in /  1004.3 hPa South 9.0 mph /  14.5 km/h 19.0 mph /  30.6 km/h 80 % 0.00 in /  0 mm 32 W/m2
07:52 55.6 °F /  13.1 °C 49.5 °F /  9.7 °C 29.66 in /  1004.3 hPa South 9.0 mph /  14.5 km/h 19.0 mph /  30.6 km/h 80 % 0.00 in /  0 mm 33 W/m2
07:57 55.6 °F /  13.1 °C 49.5 °F /  9.7 °C 29.66 in /  1004.3 hPa South 9.0 mph /  14.5 km/h 18.0 mph /  29 km/h 80 % 0.00 in /  0 mm 39 W/m2
08:02 55.6 °F /  13.1 °C 49.2 °F /  9.6 °C 29.67 in /  1004.6 hPa South 10.0 mph /  16.1 km/h 21.0 mph /  33.8 km/h 79 % 0.00 in /  0 mm 46 W/m2
08:07 55.6 °F /  13.1 °C 49.5 °F /  9.7 °C 29.67 in /  1004.6 hPa South 11.0 mph /  17.7 km/h 21.0 mph /  33.8 km/h 80 % 0.00 in /  0 mm 53 W/m2
08:13 55.6 °F /  13.1 °C 49.5 °F /  9.7 °C 29.66 in /  1004.3 hPa South 10.0 mph /  16.1 km/h 18.0 mph /  29 km/h 80 % 0.00 in /  0 mm 54 W/m2
08:18 55.6 °F /  13.1 °C 49.5 °F /  9.7 °C 29.66 in /  1004.3 hPa South 11.0 mph /  17.7 km/h 20.0 mph /  32.2 km/h 80 % 0.00 in /  0 mm 49 W/m2
08:23 55.6 °F /  13.1 °C 49.5 °F /  9.7 °C 29.66 in /  1004.3 hPa South 10.0 mph /  16.1 km/h 20.0 mph /  32.2 km/h 80 % 0.00 in /  0 mm 51 W/m2
08:28 55.6 °F /  13.1 °C 49.5 °F /  9.7 °C 29.66 in /  1004.3 hPa South 9.0 mph /  14.5 km/h 18.0 mph /  29 km/h 80 % 0.00 in /  0 mm 56 W/m2
08:33 55.6 °F /  13.1 °C 49.5 °F /  9.7 °C 29.66 in /  1004.3 hPa South 10.0 mph /  16.1 km/h 23.0 mph /  37 km/h 80 % 0.00 in /  0 mm 60 W/m2
08:38 55.6 °F /  13.1 °C 49.2 °F /  9.6 °C 29.66 in /  1004.3 hPa South 11.0 mph /  17.7 km/h 23.0 mph /  37 km/h 79 % 0.00 in /  0 mm 63 W/m2
08:43 55.8 °F /  13.2 °C 49.3 °F /  9.6 °C 29.66 in /  1004.3 hPa South 11.0 mph /  17.7 km/h 23.0 mph /  37 km/h 79 % 0.00 in /  0 mm 79 W/m2
08:48 55.8 °F /  13.2 °C 49.3 °F /  9.6 °C 29.66 in /  1004.3 hPa South 11.0 mph /  17.7 km/h 24.0 mph /  38.6 km/h 79 % 0.00 in /  0 mm 104 W/m2
08:53 55.9 °F /  13.3 °C 49.5 °F /  9.7 °C 29.66 in /  1004.3 hPa SSW 12.0 mph /  19.3 km/h 24.0 mph /  38.6 km/h 79 % 0.00 in /  0 mm 276 W/m2
08:58 56.3 °F /  13.5 °C 49.5 °F /  9.7 °C 29.66 in /  1004.3 hPa South 12.0 mph /  19.3 km/h 23.0 mph /  37 km/h 78 % 0.00 in /  0 mm 262 W/m2
09:03 56.7 °F /  13.7 °C 49.5 °F /  9.7 °C 29.66 in /  1004.3 hPa South 11.0 mph /  17.7 km/h 22.0 mph /  35.4 km/h 77 % 0.00 in /  0 mm 98 W/m2
09:08 56.8 °F /  13.8 °C 49.4 °F /  9.7 °C 29.67 in /  1004.6 hPa SSW 11.0 mph /  17.7 km/h 20.0 mph /  32.2 km/h 76 % 0.00 in /  0 mm 403 W/m2
09:13 57.4 °F /  14.1 °C 49.9 °F /  9.9 °C 29.67 in /  1004.6 hPa SSW 12.0 mph /  19.3 km/h 20.0 mph /  32.2 km/h 76 % 0.00 in /  0 mm 401 W/m2
09:18 57.7 °F /  14.3 °C 50.2 °F /  10.1 °C 29.66 in /  1004.3 hPa SSW 11.0 mph /  17.7 km/h 23.0 mph /  37 km/h 76 % 0.00 in /  0 mm 417 W/m2
09:23 57.7 °F /  14.3 °C 49.9 °F /  9.9 °C 29.66 in /  1004.3 hPa SSW 13.0 mph /  20.9 km/h 32.0 mph /  51.5 km/h 75 % 0.00 in /  0 mm 489 W/m2
09:28 57.9 °F /  14.4 °C 50.0 °F /  10 °C 29.66 in /  1004.3 hPa SSW 14.0 mph /  22.5 km/h 32.0 mph /  51.5 km/h 75 % 0.00 in /  0 mm 260 W/m2
09:33 57.9 °F /  14.4 °C 49.7 °F /  9.8 °C 29.67 in /  1004.6 hPa SSW 13.0 mph /  20.9 km/h 26.0 mph /  41.8 km/h 74 % 0.00 in /  0 mm 211 W/m2
09:38 57.9 °F /  14.4 °C 50.0 °F /  10 °C 29.67 in /  1004.6 hPa SSW 12.0 mph /  19.3 km/h 26.0 mph /  41.8 km/h 75 % 0.00 in /  0 mm 227 W/m2
09:43 57.9 °F /  14.4 °C 49.7 °F /  9.8 °C 29.67 in /  1004.6 hPa SSW 11.0 mph /  17.7 km/h 24.0 mph /  38.6 km/h 74 % 0.00 in /  0 mm 134 W/m2
09:48 57.7 °F /  14.3 °C 49.5 °F /  9.7 °C 29.67 in /  1004.6 hPa SSW 12.0 mph /  19.3 km/h 26.0 mph /  41.8 km/h 74 % 0.00 in /  0 mm 127 W/m2
09:53 57.4 °F /  14.1 °C 49.2 °F /  9.6 °C 29.67 in /  1004.6 hPa SW 14.0 mph /  22.5 km/h 26.0 mph /  41.8 km/h 74 % 0.00 in /  0 mm 148 W/m2
09:58 57.4 °F /  14.1 °C 49.5 °F /  9.7 °C 29.68 in /  1005 hPa SW 13.0 mph /  20.9 km/h 23.0 mph /  37 km/h 75 % 0.00 in /  0 mm 153 W/m2
10:03 57.4 °F /  14.1 °C 49.2 °F /  9.6 °C 29.67 in /  1004.6 hPa SSW 14.0 mph /  22.5 km/h 25.0 mph /  40.2 km/h 74 % 0.00 in /  0 mm 141 W/m2
10:08 57.0 °F /  13.9 °C 48.8 °F /  9.3 °C 29.67 in /  1004.6 hPa SSW 15.0 mph /  24.1 km/h 25.0 mph /  40.2 km/h 74 % 0.00 in /  0 mm 250 W/m2
10:13 57.6 °F /  14.2 °C 49.3 °F /  9.6 °C 29.68 in /  1005 hPa SSW 14.0 mph /  22.5 km/h 25.0 mph /  40.2 km/h 74 % 0.00 in /  0 mm 775 W/m2
10:18 58.3 °F /  14.6 °C 50.0 °F /  10 °C 29.67 in /  1004.6 hPa SSW 14.0 mph /  22.5 km/h 29.0 mph /  46.7 km/h 74 % 0.00 in /  0 mm 190 W/m2
10:23 58.3 °F /  14.6 °C 49.3 °F /  9.6 °C 29.67 in /  1004.6 hPa SSW 14.0 mph /  22.5 km/h 29.0 mph /  46.7 km/h 72 % 0.00 in /  0 mm 339 W/m2
10:28 58.3 °F /  14.6 °C 49.7 °F /  9.8 °C 29.67 in /  1004.6 hPa SSW 15.0 mph /  24.1 km/h 24.0 mph /  38.6 km/h 73 % 0.00 in /  0 mm 666 W/m2
10:33 58.6 °F /  14.8 °C 50.0 °F /  10 °C 29.67 in /  1004.6 hPa SSW 14.0 mph /  22.5 km/h 24.0 mph /  38.6 km/h 73 % 0.00 in /  0 mm 645 W/m2
10:38 59.2 °F /  15.1 °C 50.2 °F /  10.1 °C 29.68 in /  1005 hPa SW 12.0 mph /  19.3 km/h 25.0 mph /  40.2 km/h 72 % 0.00 in /  0 mm 248 W/m2
10:43 59.2 °F /  15.1 °C 49.8 °F /  9.9 °C 29.67 in /  1004.6 hPa SW 12.0 mph /  19.3 km/h 27.0 mph /  43.5 km/h 71 % 0.00 in /  0 mm 327 W/m2
10:48 59.4 °F /  15.2 °C 49.6 °F /  9.8 °C 29.67 in /  1004.6 hPa SW 14.0 mph /  22.5 km/h 27.0 mph /  43.5 km/h 70 % 0.00 in /  0 mm 752 W/m2
10:53 59.7 °F /  15.4 °C 49.9 °F /  9.9 °C 29.68 in /  1005 hPa SW 14.0 mph /  22.5 km/h 27.0 mph /  43.5 km/h 70 % 0.00 in /  0 mm 758 W/m2
10:58 59.7 °F /  15.4 °C 49.5 °F /  9.7 °C 29.68 in /  1005 hPa SW 13.0 mph /  20.9 km/h 26.0 mph /  41.8 km/h 69 % 0.00 in /  0 mm 162 W/m2
11:03 59.0 °F /  15 °C 48.8 °F /  9.3 °C 29.68 in /  1005 hPa SW 13.0 mph /  20.9 km/h 23.0 mph /  37 km/h 69 % 0.00 in /  0 mm 248 W/m2
11:08 58.8 °F /  14.9 °C 49.1 °F /  9.5 °C 29.68 in /  1005 hPa SW 13.0 mph /  20.9 km/h 23.0 mph /  37 km/h 70 % 0.00 in /  0 mm 248 W/m2
11:13 59.5 °F /  15.3 °C 49.0 °F /  9.4 °C 29.68 in /  1005 hPa SW 13.0 mph /  20.9 km/h 27.0 mph /  43.5 km/h 68 % 0.00 in /  0 mm 682 W/m2
11:18 60.1 °F /  15.6 °C 48.7 °F /  9.3 °C 29.68 in /  1005 hPa SW 16.0 mph /  25.7 km/h 29.0 mph /  46.7 km/h 66 % 0.00 in /  0 mm 687 W/m2
11:23 60.3 °F /  15.7 °C 48.9 °F /  9.4 °C 29.68 in /  1005 hPa SW 17.0 mph /  27.4 km/h 29.0 mph /  46.7 km/h 66 % 0.00 in /  0 mm 821 W/m2
11:29 60.8 °F /  16 °C 49.4 °F /  9.7 °C 29.68 in /  1005 hPa SW 14.0 mph /  22.5 km/h 27.0 mph /  43.5 km/h 66 % 0.00 in /  0 mm 828 W/m2
11:34 60.8 °F /  16 °C 49.0 °F /  9.4 °C 29.68 in /  1005 hPa SW 13.0 mph /  20.9 km/h 23.0 mph /  37 km/h 65 % 0.00 in /  0 mm 884 W/m2
11:39 60.1 °F /  15.6 °C 48.3 °F /  9.1 °C 29.68 in /  1005 hPa SSW 15.0 mph /  24.1 km/h 29.0 mph /  46.7 km/h 65 % 0.00 in /  0 mm 199 W/m2
11:44 59.5 °F /  15.3 °C 48.2 °F /  9 °C 29.68 in /  1005 hPa SW 15.0 mph /  24.1 km/h 29.0 mph /  46.7 km/h 66 % 0.00 in /  0 mm 243 W/m2
11:49 59.4 °F /  15.2 °C 47.6 °F /  8.7 °C 29.68 in /  1005 hPa SW 14.0 mph /  22.5 km/h 28.0 mph /  45.1 km/h 65 % 0.00 in /  0 mm 403 W/m2
11:54 59.5 °F /  15.3 °C 47.8 °F /  8.8 °C 29.68 in /  1005 hPa SW 13.0 mph /  20.9 km/h 28.0 mph /  45.1 km/h 65 % 0.00 in /  0 mm 283 W/m2
11:59 60.1 °F /  15.6 °C 48.3 °F /  9.1 °C 29.68 in /  1005 hPa SW 13.0 mph /  20.9 km/h 26.0 mph /  41.8 km/h 65 % 0.00 in /  0 mm 874 W/m2
12:04 60.4 °F /  15.8 °C 48.2 °F /  9 °C 29.69 in /  1005.3 hPa SW 14.0 mph /  22.5 km/h 26.0 mph /  41.8 km/h 64 % 0.00 in /  0 mm 227 W/m2
12:09 60.1 °F /  15.6 °C 47.4 °F /  8.6 °C 29.69 in /  1005.3 hPa SW 15.0 mph /  24.1 km/h 24.0 mph /  38.6 km/h 63 % 0.00 in /  0 mm 302 W/m2
12:14 60.3 °F /  15.7 °C 47.6 °F /  8.7 °C 29.69 in /  1005.3 hPa SW 14.0 mph /  22.5 km/h 24.0 mph /  38.6 km/h 63 % 0.00 in /  0 mm 299 W/m2
12:19 59.7 °F /  15.4 °C 47.1 °F /  8.4 °C 29.69 in /  1005.3 hPa SW 14.0 mph /  22.5 km/h 26.0 mph /  41.8 km/h 63 % 0.00 in /  0 mm 178 W/m2
12:24 59.5 °F /  15.3 °C 47.8 °F /  8.8 °C 29.69 in /  1005.3 hPa SW 15.0 mph /  24.1 km/h 26.0 mph /  41.8 km/h 65 % 0.00 in /  0 mm 826 W/m2
12:29 60.6 °F /  15.9 °C 48.8 °F /  9.3 °C 29.69 in /  1005.3 hPa SW 12.0 mph /  19.3 km/h 22.0 mph /  35.4 km/h 65 % 0.00 in /  0 mm 809 W/m2
12:34 61.2 °F /  16.2 °C 48.5 °F /  9.2 °C 29.69 in /  1005.3 hPa SW 11.0 mph /  17.7 km/h 21.0 mph /  33.8 km/h 63 % 0.00 in /  0 mm 223 W/m2
12:39 61.0 °F /  16.1 °C 48.3 °F /  9.1 °C 29.69 in /  1005.3 hPa SW 11.0 mph /  17.7 km/h 20.0 mph /  32.2 km/h 63 % 0.00 in /  0 mm 872 W/m2
12:44 60.6 °F /  15.9 °C 47.5 °F /  8.6 °C 29.69 in /  1005.3 hPa SW 14.0 mph /  22.5 km/h 29.0 mph /  46.7 km/h 62 % 0.00 in /  0 mm 276 W/m2
12:49 60.1 °F /  15.6 °C 47.0 °F /  8.3 °C 29.69 in /  1005.3 hPa SW 15.0 mph /  24.1 km/h 29.0 mph /  46.7 km/h 62 % 0.00 in /  0 mm 241 W/m2
12:54 59.9 °F /  15.5 °C 48.1 °F /  8.9 °C 29.69 in /  1005.3 hPa SW 14.0 mph /  22.5 km/h 27.0 mph /  43.5 km/h 65 % 0.00 in /  0 mm 819 W/m2
12:59 60.3 °F /  15.7 °C 48.0 °F /  8.9 °C 29.69 in /  1005.3 hPa SW 13.0 mph /  20.9 km/h 24.0 mph /  38.6 km/h 64 % 0.00 in /  0 mm 796 W/m2
13:04 60.6 °F /  15.9 °C 47.9 °F /  8.8 °C 29.69 in /  1005.3 hPa SW 13.0 mph /  20.9 km/h 24.0 mph /  38.6 km/h 63 % 0.00 in /  0 mm 802 W/m2
13:09 61.2 °F /  16.2 °C 48.9 °F /  9.4 °C 29.68 in /  1005 hPa SW 11.0 mph /  17.7 km/h 21.0 mph /  33.8 km/h 64 % 0.00 in /  0 mm 786 W/m2
13:14 61.9 °F /  16.6 °C 48.7 °F /  9.3 °C 29.68 in /  1005 hPa SW 10.0 mph /  16.1 km/h 21.0 mph /  33.8 km/h 62 % 0.00 in /  0 mm 830 W/m2
13:20 62.1 °F /  16.7 °C 47.6 °F /  8.7 °C 29.68 in /  1005 hPa SW 13.0 mph /  20.9 km/h 25.0 mph /  40.2 km/h 59 % 0.00 in /  0 mm 784 W/m2
13:25 62.1 °F /  16.7 °C 47.6 °F /  8.7 °C 29.68 in /  1005 hPa SW 15.0 mph /  24.1 km/h 25.0 mph /  40.2 km/h 59 % 0.00 in /  0 mm 777 W/m2
13:30 61.9 °F /  16.6 °C 46.9 °F /  8.3 °C 29.68 in /  1005 hPa SW 15.0 mph /  24.1 km/h 27.0 mph /  43.5 km/h 58 % 0.00 in /  0 mm 824 W/m2
13:35 62.2 °F /  16.8 °C 47.7 °F /  8.7 °C 29.68 in /  1005 hPa SW 14.0 mph /  22.5 km/h 27.0 mph /  43.5 km/h 59 % 0.00 in /  0 mm 849 W/m2
13:40 63.0 °F /  17.2 °C 47.5 °F /  8.6 °C 29.68 in /  1005 hPa SW 13.0 mph /  20.9 km/h 23.0 mph /  37 km/h 57 % 0.00 in /  0 mm 840 W/m2
13:45 63.0 °F /  17.2 °C 47.0 °F /  8.3 °C 29.68 in /  1005 hPa SW 14.0 mph /  22.5 km/h 22.0 mph /  35.4 km/h 56 % 0.00 in /  0 mm 812 W/m2
13:50 62.6 °F /  17 °C 46.7 °F /  8.2 °C 29.68 in /  1005 hPa SW 13.0 mph /  20.9 km/h 21.0 mph /  33.8 km/h 56 % 0.00 in /  0 mm 758 W/m2
13:55 62.8 °F /  17.1 °C 45.9 °F /  7.7 °C 29.68 in /  1005 hPa SW 14.0 mph /  22.5 km/h 25.0 mph /  40.2 km/h 54 % 0.00 in /  0 mm 793 W/m2
14:00 63.0 °F /  17.2 °C 45.6 °F /  7.6 °C 29.68 in /  1005 hPa SW 15.0 mph /  24.1 km/h 25.0 mph /  40.2 km/h 53 % 0.00 in /  0 mm 397 W/m2
14:05 62.8 °F /  17.1 °C 45.9 °F /  7.7 °C 29.68 in /  1005 hPa SW 14.0 mph /  22.5 km/h 25.0 mph /  40.2 km/h 54 % 0.00 in /  0 mm 858 W/m2
14:10 63.0 °F /  17.2 °C 46.0 °F /  7.8 °C 29.68 in /  1005 hPa SW 14.0 mph /  22.5 km/h 24.0 mph /  38.6 km/h 54 % 0.00 in /  0 mm 758 W/m2
14:15 63.1 °F /  17.3 °C 46.7 °F /  8.2 °C 29.68 in /  1005 hPa SW 12.0 mph /  19.3 km/h 20.0 mph /  32.2 km/h 55 % 0.00 in /  0 mm 269 W/m2
14:20 63.3 °F /  17.4 °C 46.4 °F /  8 °C 29.68 in /  1005 hPa SW 11.0 mph /  17.7 km/h 20.0 mph /  32.2 km/h 54 % 0.00 in /  0 mm 749 W/m2
14:25 63.3 °F /  17.4 °C 45.9 °F /  7.7 °C 29.68 in /  1005 hPa WSW 12.0 mph /  19.3 km/h 20.0 mph /  32.2 km/h 53 % 0.00 in /  0 mm 733 W/m2
14:30 63.1 °F /  17.3 °C 45.7 °F /  7.6 °C 29.68 in /  1005 hPa SW 13.0 mph /  20.9 km/h 22.0 mph /  35.4 km/h 53 % 0.00 in /  0 mm 744 W/m2
14:35 63.3 °F /  17.4 °C 46.4 °F /  8 °C 29.68 in /  1005 hPa SW 12.0 mph /  19.3 km/h 22.0 mph /  35.4 km/h 54 % 0.00 in /  0 mm 744 W/m2
14:40 63.3 °F /  17.4 °C 45.9 °F /  7.7 °C 29.68 in /  1005 hPa SW 11.0 mph /  17.7 km/h 22.0 mph /  35.4 km/h 53 % 0.00 in /  0 mm 782 W/m2
14:45 63.3 °F /  17.4 °C 44.4 °F /  6.9 °C 29.67 in /  1004.6 hPa SW 12.0 mph /  19.3 km/h 22.0 mph /  35.4 km/h 50 % 0.00 in /  0 mm 803 W/m2
14:50 63.1 °F /  17.3 °C 44.7 °F /  7.1 °C 29.68 in /  1005 hPa SW 13.0 mph /  20.9 km/h 24.0 mph /  38.6 km/h 51 % 0.00 in /  0 mm 817 W/m2
14:55 63.7 °F /  17.6 °C 45.7 °F /  7.6 °C 29.68 in /  1005 hPa SW 12.0 mph /  19.3 km/h 24.0 mph /  38.6 km/h 52 % 0.00 in /  0 mm 810 W/m2
14:56 63.7 °F /  17.6 °C 45.2 °F /  7.3 °C 29.68 in /  1005 hPa SW 12.0 mph /  19.3 km/h 24.0 mph /  38.6 km/h 51 % 0.00 in /  0 mm 810 W/m2
15:01 63.9 °F /  17.7 °C 44.3 °F /  6.8 °C 29.68 in /  1005 hPa SW 12.0 mph /  19.3 km/h 27.0 mph /  43.5 km/h 49 % 0.00 in /  0 mm 824 W/m2
15:06 63.5 °F /  17.5 °C 44.0 °F /  6.7 °C 29.68 in /  1005 hPa SW 13.0 mph /  20.9 km/h 27.0 mph /  43.5 km/h 49 % 0.00 in /  0 mm 735 W/m2
15:11 63.1 °F /  17.3 °C 43.7 °F /  6.5 °C 29.68 in /  1005 hPa SW 14.0 mph /  22.5 km/h 24.0 mph /  38.6 km/h 49 % 0.00 in /  0 mm 705 W/m2
15:16 62.8 °F /  17.1 °C 43.3 °F /  6.3 °C 29.68 in /  1005 hPa SW 13.0 mph /  20.9 km/h 24.0 mph /  38.6 km/h 49 % 0.00 in /  0 mm 221 W/m2
15:21 62.6 °F /  17 °C 42.6 °F /  5.9 °C 29.68 in /  1005 hPa SW 12.0 mph /  19.3 km/h 24.0 mph /  38.6 km/h 48 % 0.00 in /  0 mm 327 W/m2
15:26 62.2 °F /  16.8 °C 42.3 °F /  5.7 °C 29.68 in /  1005 hPa SW 13.0 mph /  20.9 km/h 24.0 mph /  38.6 km/h 48 % 0.00 in /  0 mm 708 W/m2
15:31 62.8 °F /  17.1 °C 43.9 °F /  6.6 °C 29.68 in /  1005 hPa SW 12.0 mph /  19.3 km/h 24.0 mph /  38.6 km/h 50 % 0.00 in /  0 mm 737 W/m2
15:36 63.0 °F /  17.2 °C 44.0 °F /  6.7 °C 29.68 in /  1005 hPa WSW 10.0 mph /  16.1 km/h 16.0 mph /  25.7 km/h 50 % 0.00 in /  0 mm 751 W/m2
15:41 63.0 °F /  17.2 °C 43.5 °F /  6.4 °C 29.68 in /  1005 hPa SW 11.0 mph /  17.7 km/h 20.0 mph /  32.2 km/h 49 % 0.00 in /  0 mm 715 W/m2
15:46 62.4 °F /  16.9 °C 42.5 °F /  5.8 °C 29.68 in /  1005 hPa SW 13.0 mph /  20.9 km/h 22.0 mph /  35.4 km/h 48 % 0.00 in /  0 mm 276 W/m2
15:51 62.2 °F /  16.8 °C 43.4 °F /  6.3 °C 29.68 in /  1005 hPa SW 14.0 mph /  22.5 km/h 22.0 mph /  35.4 km/h 50 % 0.00 in /  0 mm 696 W/m2
15:56 62.2 °F /  16.8 °C 42.8 °F /  6 °C 29.68 in /  1005 hPa SW 13.0 mph /  20.9 km/h 23.0 mph /  37 km/h 49 % 0.00 in /  0 mm 260 W/m2
16:01 62.1 °F /  16.7 °C 43.7 °F /  6.5 °C 29.67 in /  1004.6 hPa SW 13.0 mph /  20.9 km/h 23.0 mph /  37 km/h 51 % 0.00 in /  0 mm 682 W/m2
16:06 62.2 °F /  16.8 °C 43.4 °F /  6.3 °C 29.67 in /  1004.6 hPa SW 13.0 mph /  20.9 km/h 20.0 mph /  32.2 km/h 50 % 0.00 in /  0 mm 661 W/m2
16:11 62.2 °F /  16.8 °C 43.9 °F /  6.6 °C 29.68 in /  1005 hPa WSW 12.0 mph /  19.3 km/h 23.0 mph /  37 km/h 51 % 0.00 in /  0 mm 236 W/m2
16:16 61.9 °F /  16.6 °C 44.1 °F /  6.7 °C 29.67 in /  1004.6 hPa SW 12.0 mph /  19.3 km/h 23.0 mph /  37 km/h 52 % 0.00 in /  0 mm 657 W/m2
16:21 62.1 °F /  16.7 °C 43.7 °F /  6.5 °C 29.67 in /  1004.6 hPa SW 12.0 mph /  19.3 km/h 26.0 mph /  41.8 km/h 51 % 0.00 in /  0 mm 524 W/m2
16:26 61.9 °F /  16.6 °C 43.5 °F /  6.4 °C 29.67 in /  1004.6 hPa SSW 14.0 mph /  22.5 km/h 26.0 mph /  41.8 km/h 51 % 0.00 in /  0 mm 628 W/m2
16:31 61.7 °F /  16.5 °C 44.4 °F /  6.9 °C 29.67 in /  1004.6 hPa SW 13.0 mph /  20.9 km/h 25.0 mph /  40.2 km/h 53 % 0.00 in /  0 mm 427 W/m2
16:37 61.5 °F /  16.4 °C 44.2 °F /  6.8 °C 29.67 in /  1004.6 hPa SW 11.0 mph /  17.7 km/h 22.0 mph /  35.4 km/h 53 % 0.00 in /  0 mm 257 W/m2
16:42 61.3 °F /  16.3 °C 43.6 °F /  6.4 °C 29.67 in /  1004.6 hPa SW 12.0 mph /  19.3 km/h 22.0 mph /  35.4 km/h 52 % 0.00 in /  0 mm 234 W/m2
16:47 61.3 °F /  16.3 °C 44.1 °F /  6.7 °C 29.67 in /  1004.6 hPa SW 12.0 mph /  19.3 km/h 20.0 mph /  32.2 km/h 53 % 0.00 in /  0 mm 466 W/m2
16:52 61.9 °F /  16.6 °C 44.6 °F /  7 °C 29.67 in /  1004.6 hPa SW 11.0 mph /  17.7 km/h 20.0 mph /  32.2 km/h 53 % 0.00 in /  0 mm 483 W/m2
16:57 61.9 °F /  16.6 °C 44.1 °F /  6.7 °C 29.67 in /  1004.6 hPa SW 10.0 mph /  16.1 km/h 16.0 mph /  25.7 km/h 52 % 0.00 in /  0 mm 148 W/m2
17:02 61.3 °F /  16.3 °C 43.6 °F /  6.4 °C 29.67 in /  1004.6 hPa SW 11.0 mph /  17.7 km/h 20.0 mph /  32.2 km/h 52 % 0.00 in /  0 mm 123 W/m2
17:07 61.2 °F /  16.2 °C 43.9 °F /  6.6 °C 29.67 in /  1004.6 hPa WSW 11.0 mph /  17.7 km/h 20.0 mph /  32.2 km/h 53 % 0.00 in /  0 mm 469 W/m2
17:12 61.3 °F /  16.3 °C 43.6 °F /  6.4 °C 29.67 in /  1004.6 hPa SW 11.0 mph /  17.7 km/h 24.0 mph /  38.6 km/h 52 % 0.00 in /  0 mm 441 W/m2
17:17 61.2 °F /  16.2 °C 43.4 °F /  6.3 °C 29.67 in /  1004.6 hPa SW 12.0 mph /  19.3 km/h 24.0 mph /  38.6 km/h 52 % 0.00 in /  0 mm 139 W/m2
17:22 60.6 °F /  15.9 °C 43.4 °F /  6.3 °C 29.67 in /  1004.6 hPa SW 12.0 mph /  19.3 km/h 20.0 mph /  32.2 km/h 53 % 0.00 in /  0 mm 95 W/m2
17:27 60.1 °F /  15.6 °C 42.9 °F /  6.1 °C 29.67 in /  1004.6 hPa SW 12.0 mph /  19.3 km/h 21.0 mph /  33.8 km/h 53 % 0.00 in /  0 mm 113 W/m2
17:32 60.1 °F /  15.6 °C 43.4 °F /  6.3 °C 29.67 in /  1004.6 hPa SW 10.0 mph /  16.1 km/h 21.0 mph /  33.8 km/h 54 % 0.00 in /  0 mm 88 W/m2
17:37 60.1 °F /  15.6 °C 42.9 °F /  6.1 °C 29.67 in /  1004.6 hPa SW 9.0 mph /  14.5 km/h 20.0 mph /  32.2 km/h 53 % 0.00 in /  0 mm 257 W/m2
17:42 60.1 °F /  15.6 °C 42.9 °F /  6.1 °C 29.67 in /  1004.6 hPa SW 11.0 mph /  17.7 km/h 21.0 mph /  33.8 km/h 53 % 0.00 in /  0 mm 102 W/m2
17:47 60.1 °F /  15.6 °C 42.9 °F /  6.1 °C 29.67 in /  1004.6 hPa SW 12.0 mph /  19.3 km/h 21.0 mph /  33.8 km/h 53 % 0.00 in /  0 mm 251 W/m2
17:52 60.1 °F /  15.6 °C 42.9 °F /  6.1 °C 29.67 in /  1004.6 hPa SW 12.0 mph /  19.3 km/h 23.0 mph /  37 km/h 53 % 0.00 in /  0 mm 229 W/m2
17:57 60.3 °F /  15.7 °C 43.5 °F /  6.4 °C 29.67 in /  1004.6 hPa SW 11.0 mph /  17.7 km/h 23.0 mph /  37 km/h 54 % 0.00 in /  0 mm 72 W/m2
18:02 59.9 °F /  15.5 °C 43.2 °F /  6.2 °C 29.67 in /  1004.6 hPa SW 11.0 mph /  17.7 km/h 21.0 mph /  33.8 km/h 54 % 0.00 in /  0 mm 202 W/m2
18:07 59.7 °F /  15.4 °C 43.0 °F /  6.1 °C 29.67 in /  1004.6 hPa SW 11.0 mph /  17.7 km/h 21.0 mph /  33.8 km/h 54 % 0.00 in /  0 mm 181 W/m2
18:12 59.7 °F /  15.4 °C 43.5 °F /  6.4 °C 29.67 in /  1004.6 hPa SW 9.0 mph /  14.5 km/h 18.0 mph /  29 km/h 55 % 0.00 in /  0 mm 163 W/m2
18:17 59.7 °F /  15.4 °C 43.5 °F /  6.4 °C 29.67 in /  1004.6 hPa SW 10.0 mph /  16.1 km/h 19.0 mph /  30.6 km/h 55 % 0.00 in /  0 mm 151 W/m2
18:22 59.5 °F /  15.3 °C 43.3 °F /  6.3 °C 29.68 in /  1005 hPa SW 10.0 mph /  16.1 km/h 19.0 mph /  30.6 km/h 55 % 0.00 in /  0 mm 40 W/m2
18:27 59.4 °F /  15.2 °C 43.2 °F /  6.2 °C 29.67 in /  1004.6 hPa SW 10.0 mph /  16.1 km/h 16.0 mph /  25.7 km/h 55 % 0.00 in /  0 mm 33 W/m2
18:32 59.0 °F /  15 °C 43.3 °F /  6.3 °C 29.67 in /  1004.6 hPa SW 10.0 mph /  16.1 km/h 16.0 mph /  25.7 km/h 56 % 0.00 in /  0 mm 44 W/m2
18:37 58.8 °F /  14.9 °C 43.6 °F /  6.4 °C 29.67 in /  1004.6 hPa SSW 9.0 mph /  14.5 km/h 16.0 mph /  25.7 km/h 57 % 0.00 in /  0 mm 33 W/m2
18:42 58.6 °F /  14.8 °C 43.4 °F /  6.3 °C 29.67 in /  1004.6 hPa SSW 7.0 mph /  11.3 km/h 12.0 mph /  19.3 km/h 57 % 0.00 in /  0 mm 26 W/m2
18:47 58.6 °F /  14.8 °C 43.9 °F /  6.6 °C 29.68 in /  1005 hPa SSW 7.0 mph /  11.3 km/h 12.0 mph /  19.3 km/h 58 % 0.00 in /  0 mm 16 W/m2
18:52 58.6 °F /  14.8 °C 43.9 °F /  6.6 °C 29.68 in /  1005 hPa SSW 7.0 mph /  11.3 km/h 13.0 mph /  20.9 km/h 58 % 0.00 in /  0 mm 11 W/m2
18:57 58.5 °F /  14.7 °C 44.2 °F /  6.8 °C 29.68 in /  1005 hPa SSW 7.0 mph /  11.3 km/h 14.0 mph /  22.5 km/h 59 % 0.00 in /  0 mm 7 W/m2
19:02 58.5 °F /  14.7 °C 44.2 °F /  6.8 °C 29.68 in /  1005 hPa South 8.0 mph /  12.9 km/h 15.0 mph /  24.1 km/h 59 % 0.00 in /  0 mm 9 W/m2
19:08 58.5 °F /  14.7 °C 44.2 °F /  6.8 °C 29.68 in /  1005 hPa SSW 9.0 mph /  14.5 km/h 15.0 mph /  24.1 km/h 59 % 0.00 in /  0 mm 11 W/m2
19:13 58.5 °F /  14.7 °C 44.2 °F /  6.8 °C 29.68 in /  1005 hPa SSW 9.0 mph /  14.5 km/h 14.0 mph /  22.5 km/h 59 % 0.00 in /  0 mm 14 W/m2
19:18 58.3 °F /  14.6 °C 44.4 °F /  6.9 °C 29.68 in /  1005 hPa South 9.0 mph /  14.5 km/h 14.0 mph /  22.5 km/h 60 % 0.00 in /  0 mm 19 W/m2
19:23 58.3 °F /  14.6 °C 44.4 °F /  6.9 °C 29.68 in /  1005 hPa SSW 8.0 mph /  12.9 km/h 13.0 mph /  20.9 km/h 60 % 0.00 in /  0 mm 16 W/m2
19:28 58.3 °F /  14.6 °C 44.4 °F /  6.9 °C 29.68 in /  1005 hPa SSW 8.0 mph /  12.9 km/h 19.0 mph /  30.6 km/h 60 % 0.00 in /  0 mm 9 W/m2
19:33 58.1 °F /  14.5 °C 44.7 °F /  7.1 °C 29.68 in /  1005 hPa SSW 10.0 mph /  16.1 km/h 22.0 mph /  35.4 km/h 61 % 0.00 in /  0 mm 0 W/m2
19:38 57.9 °F /  14.4 °C 44.5 °F /  6.9 °C 29.68 in /  1005 hPa SSW 12.0 mph /  19.3 km/h 22.0 mph /  35.4 km/h 61 % 0.00 in /  0 mm 0 W/m2
19:43 57.7 °F /  14.3 °C 44.4 °F /  6.9 °C 29.68 in /  1005 hPa SSW 12.0 mph /  19.3 km/h 20.0 mph /  32.2 km/h 61 % 0.00 in /  0 mm 0 W/m2
19:48 57.6 °F /  14.2 °C 44.6 °F /  7 °C 29.69 in /  1005.3 hPa SSW 10.0 mph /  16.1 km/h 18.0 mph /  29 km/h 62 % 0.00 in /  0 mm 0 W/m2
19:53 57.6 °F /  14.2 °C 44.6 °F /  7 °C 29.69 in /  1005.3 hPa SSW 9.0 mph /  14.5 km/h 14.0 mph /  22.5 km/h 62 % 0.00 in /  0 mm 0 W/m2
19:58 57.4 °F /  14.1 °C 44.9 °F /  7.2 °C 29.69 in /  1005.3 hPa SSW 10.0 mph /  16.1 km/h 22.0 mph /  35.4 km/h 63 % 0.00 in /  0 mm 0 W/m2
20:03 57.4 °F /  14.1 °C 46.1 °F /  7.8 °C 29.69 in /  1005.3 hPa SSW 11.0 mph /  17.7 km/h 22.0 mph /  35.4 km/h 66 % 0.00 in /  0 mm 0 W/m2
20:08 57.0 °F /  13.9 °C 45.8 °F /  7.7 °C 29.69 in /  1005.3 hPa SW 9.0 mph /  14.5 km/h 18.0 mph /  29 km/h 66 % 0.00 in /  0 mm 0 W/m2
20:13 56.8 °F /  13.8 °C 46.0 °F /  7.8 °C 29.69 in /  1005.3 hPa SW 7.0 mph /  11.3 km/h 13.0 mph /  20.9 km/h 67 % 0.00 in /  0 mm 0 W/m2
20:18 56.8 °F /  13.8 °C 45.6 °F /  7.6 °C 29.70 in /  1005.6 hPa SSW 6.0 mph /  9.7 km/h 13.0 mph /  20.9 km/h 66 % 0.00 in /  0 mm 0 W/m2
20:23 56.7 °F /  13.7 °C 45.4 °F /  7.4 °C 29.70 in /  1005.6 hPa SSW 6.0 mph /  9.7 km/h 12.0 mph /  19.3 km/h 66 % 0.00 in /  0 mm 0 W/m2
20:28 56.7 °F /  13.7 °C 45.8 °F /  7.7 °C 29.69 in /  1005.3 hPa SSW 7.0 mph /  11.3 km/h 14.0 mph /  22.5 km/h 67 % 0.00 in /  0 mm 0 W/m2
20:33 56.7 °F /  13.7 °C 46.2 °F /  7.9 °C 29.70 in /  1005.6 hPa SSW 8.0 mph /  12.9 km/h 16.0 mph /  25.7 km/h 68 % 0.00 in /  0 mm 0 W/m2
20:38 56.5 °F /  13.6 °C 46.0 °F /  7.8 °C 29.70 in /  1005.6 hPa SSW 9.0 mph /  14.5 km/h 19.0 mph /  30.6 km/h 68 % 0.00 in /  0 mm 0 W/m2
20:43 56.3 °F /  13.5 °C 46.3 °F /  7.9 °C 29.70 in /  1005.6 hPa SSW 10.0 mph /  16.1 km/h 19.0 mph /  30.6 km/h 69 % 0.00 in /  0 mm 0 W/m2
20:48 56.1 °F /  13.4 °C 46.5 °F /  8.1 °C 29.70 in /  1005.6 hPa SSW 9.0 mph /  14.5 km/h 16.0 mph /  25.7 km/h 70 % 0.00 in /  0 mm 0 W/m2
20:53 55.9 °F /  13.3 °C 46.7 °F /  8.2 °C 29.70 in /  1005.6 hPa SSW 10.0 mph /  16.1 km/h 21.0 mph /  33.8 km/h 71 % 0.00 in /  0 mm 0 W/m2
20:58 55.9 °F /  13.3 °C 47.0 °F /  8.3 °C 29.70 in /  1005.6 hPa SSW 9.0 mph /  14.5 km/h 21.0 mph /  33.8 km/h 72 % 0.00 in /  0 mm 0 W/m2
21:03 55.8 °F /  13.2 °C 46.9 °F /  8.3 °C 29.70 in /  1005.6 hPa SW 9.0 mph /  14.5 km/h 15.0 mph /  24.1 km/h 72 % 0.00 in /  0 mm 0 W/m2
21:08 55.6 °F /  13.1 °C 47.1 °F /  8.4 °C 29.70 in /  1005.6 hPa SW 10.0 mph /  16.1 km/h 15.0 mph /  24.1 km/h 73 % 0.00 in /  0 mm 0 W/m2
21:13 55.6 °F /  13.1 °C 47.1 °F /  8.4 °C 29.70 in /  1005.6 hPa SW 11.0 mph /  17.7 km/h 18.0 mph /  29 km/h 73 % 0.00 in /  0 mm 0 W/m2
21:18 55.6 °F /  13.1 °C 47.4 °F /  8.6 °C 29.70 in /  1005.6 hPa SSW 12.0 mph /  19.3 km/h 21.0 mph /  33.8 km/h 74 % 0.00 in /  0 mm 0 W/m2
21:23 55.0 °F /  12.8 °C 47.6 °F /  8.7 °C 29.70 in /  1005.6 hPa SSW 11.0 mph /  17.7 km/h 21.0 mph /  33.8 km/h 76 % 0.00 in /  0 mm 0 W/m2
21:28 54.9 °F /  12.7 °C 47.8 °F /  8.8 °C 29.70 in /  1005.6 hPa SSW 9.0 mph /  14.5 km/h 15.0 mph /  24.1 km/h 77 % 0.00 in /  0 mm 0 W/m2
21:34 54.7 °F /  12.6 °C 48.0 °F /  8.9 °C 29.70 in /  1005.6 hPa SSW 9.0 mph /  14.5 km/h 15.0 mph /  24.1 km/h 78 % 0.00 in /  0 mm 0 W/m2
21:39 54.5 °F /  12.5 °C 47.8 °F /  8.8 °C 29.70 in /  1005.6 hPa SSW 8.0 mph /  12.9 km/h 16.0 mph /  25.7 km/h 78 % 0.00 in /  0 mm 0 W/m2
21:44 54.3 °F /  12.4 °C 47.6 °F /  8.7 °C 29.70 in /  1005.6 hPa SSW 8.0 mph /  12.9 km/h 16.0 mph /  25.7 km/h 78 % 0.00 in /  0 mm 0 W/m2
21:49 54.3 °F /  12.4 °C 47.6 °F /  8.7 °C 29.70 in /  1005.6 hPa SSW 8.0 mph /  12.9 km/h 16.0 mph /  25.7 km/h 78 % 0.00 in /  0 mm 0 W/m2
21:54 54.1 °F /  12.3 °C 47.4 °F /  8.6 °C 29.70 in /  1005.6 hPa SSW 7.0 mph /  11.3 km/h 16.0 mph /  25.7 km/h 78 % 0.00 in /  0 mm 0 W/m2
21:59 54.1 °F /  12.3 °C 47.8 °F /  8.8 °C 29.70 in /  1005.6 hPa SSW 7.0 mph /  11.3 km/h 18.0 mph /  29 km/h 79 % 0.00 in /  0 mm 0 W/m2
22:04 54.1 °F /  12.3 °C 47.8 °F /  8.8 °C 29.70 in /  1005.6 hPa SSW 7.0 mph /  11.3 km/h 18.0 mph /  29 km/h 79 % 0.00 in /  0 mm 0 W/m2
22:09 54.1 °F /  12.3 °C 47.8 °F /  8.8 °C 29.70 in /  1005.6 hPa SSW 7.0 mph /  11.3 km/h 11.0 mph /  17.7 km/h 79 % 0.00 in /  0 mm 0 W/m2
22:14 54.0 °F /  12.2 °C 47.6 °F /  8.7 °C 29.70 in /  1005.6 hPa SSW 7.0 mph /  11.3 km/h 11.0 mph /  17.7 km/h 79 % 0.00 in /  0 mm 0 W/m2
22:19 54.0 °F /  12.2 °C 47.6 °F /  8.7 °C 29.70 in /  1005.6 hPa SSW 6.0 mph /  9.7 km/h 11.0 mph /  17.7 km/h 79 % 0.00 in /  0 mm 0 W/m2
22:24 54.0 °F /  12.2 °C 47.6 °F /  8.7 °C 29.70 in /  1005.6 hPa SSW 5.0 mph /  8 km/h 9.0 mph /  14.5 km/h 79 % 0.00 in /  0 mm 0 W/m2
22:29 54.0 °F /  12.2 °C 47.6 °F /  8.7 °C 29.70 in /  1005.6 hPa South 5.0 mph /  8 km/h 9.0 mph /  14.5 km/h 79 % 0.00 in /  0 mm 0 W/m2
22:34 53.8 °F /  12.1 °C 47.4 °F /  8.6 °C 29.70 in /  1005.6 hPa South 5.0 mph /  8 km/h 10.0 mph /  16.1 km/h 79 % 0.00 in /  0 mm 0 W/m2
22:39 53.8 °F /  12.1 °C 47.8 °F /  8.8 °C 29.70 in /  1005.6 hPa SSW 6.0 mph /  9.7 km/h 14.0 mph /  22.5 km/h 80 % 0.00 in /  0 mm 0 W/m2
22:44 53.6 °F /  12 °C 47.6 °F /  8.7 °C 29.70 in /  1005.6 hPa SSW 7.0 mph /  11.3 km/h 14.0 mph /  22.5 km/h 80 % 0.00 in /  0 mm 0 W/m2
22:49 53.4 °F /  11.9 °C 47.4 °F /  8.6 °C 29.70 in /  1005.6 hPa South 6.0 mph /  9.7 km/h 11.0 mph /  17.7 km/h 80 % 0.00 in /  0 mm 0 W/m2
22:54 53.4 °F /  11.9 °C 47.7 °F /  8.7 °C 29.70 in /  1005.6 hPa South 6.0 mph /  9.7 km/h 11.0 mph /  17.7 km/h 81 % 0.00 in /  0 mm 0 W/m2
22:59 53.2 °F /  11.8 °C 47.6 °F /  8.7 °C 29.70 in /  1005.6 hPa South 5.0 mph /  8 km/h 11.0 mph /  17.7 km/h 81 % 0.00 in /  0 mm 0 W/m2
23:04 53.1 °F /  11.7 °C 47.4 °F /  8.6 °C 29.70 in /  1005.6 hPa South 4.0 mph /  6.4 km/h 10.0 mph /  16.1 km/h 81 % 0.00 in /  0 mm 0 W/m2
23:09 53.1 °F /  11.7 °C 47.4 °F /  8.6 °C 29.70 in /  1005.6 hPa SSW 5.0 mph /  8 km/h 11.0 mph /  17.7 km/h 81 % 0.00 in /  0 mm 0 W/m2
23:14 52.9 °F /  11.6 °C 47.2 °F /  8.4 °C 29.70 in /  1005.6 hPa South 5.0 mph /  8 km/h 11.0 mph /  17.7 km/h 81 % 0.00 in /  0 mm 0 W/m2
23:19 52.9 °F /  11.6 °C 47.2 °F /  8.4 °C 29.70 in /  1005.6 hPa South 6.0 mph /  9.7 km/h 11.0 mph /  17.7 km/h 81 % 0.00 in /  0 mm 0 W/m2
23:24 52.7 °F /  11.5 °C 47.0 °F /  8.3 °C 29.70 in /  1005.6 hPa SSW 6.0 mph /  9.7 km/h 11.0 mph /  17.7 km/h 81 % 0.00 in /  0 mm 0 W/m2
23:29 52.7 °F /  11.5 °C 47.0 °F /  8.3 °C 29.70 in /  1005.6 hPa SSW 6.0 mph /  9.7 km/h 11.0 mph /  17.7 km/h 81 % 0.00 in /  0 mm 0 W/m2
23:34 52.5 °F /  11.4 °C 46.9 °F /  8.3 °C 29.70 in /  1005.6 hPa South 6.0 mph /  9.7 km/h 11.0 mph /  17.7 km/h 81 % 0.00 in /  0 mm 0 W/m2
23:39 52.5 °F /  11.4 °C 46.9 °F /  8.3 °C 29.70 in /  1005.6 hPa SSW 6.0 mph /  9.7 km/h 15.0 mph /  24.1 km/h 81 % 0.00 in /  0 mm 0 W/m2
23:44 52.5 °F /  11.4 °C 46.9 °F /  8.3 °C 29.70 in /  1005.6 hPa SSW 7.0 mph /  11.3 km/h 15.0 mph /  24.1 km/h 81 % 0.00 in /  0 mm 0 W/m2
23:49 52.5 °F /  11.4 °C 46.9 °F /  8.3 °C 29.70 in /  1005.6 hPa SSW 6.0 mph /  9.7 km/h 11.0 mph /  17.7 km/h 81 % 0.00 in /  0 mm 0 W/m2
23:54 52.5 °F /  11.4 °C 46.9 °F /  8.3 °C 29.70 in /  1005.6 hPa SSW 4.0 mph /  6.4 km/h 11.0 mph /  17.7 km/h 81 % 0.00 in /  0 mm 0 W/m2
23:59 52.3 °F /  11.3 °C 46.7 °F /  8.2 °C 29.70 in /  1005.6 hPa South 4.0 mph /  6.4 km/h 9.0 mph /  14.5 km/h 81 % 0.00 in /  0 mm 0 W/m2
Delerius-Weather
Compliments of Weather Underground - 2.25 mb

Data updates at regular intervals.